createdAt,value
2023-03-02T00:02:43.815Z,5.90
2023-03-02T00:05:49.869Z,6.10
2023-03-02T00:08:52.886Z,6.30
2023-03-02T00:11:55.843Z,6.28
2023-03-02T00:14:58.711Z,6.10
2023-03-02T00:18:01.240Z,6.18
2023-03-02T00:21:04.326Z,6.18
2023-03-02T00:24:08.007Z,5.80
2023-03-02T00:27:10.696Z,6.50
2023-03-02T00:30:15.457Z,6.43
2023-03-02T00:33:19.967Z,6.60
2023-03-02T00:36:23.460Z,6.40
2023-03-02T00:39:26.288Z,6.23
2023-03-02T00:42:29.150Z,6.15
2023-03-02T00:45:31.736Z,5.88
2023-03-02T00:48:34.448Z,6.05
2023-03-02T00:51:37.597Z,6.00
2023-03-02T00:54:40.230Z,6.00
2023-03-02T00:57:43.046Z,6.13
2023-03-02T01:00:45.918Z,6.00
2023-03-02T01:03:49.879Z,6.50
2023-03-02T01:06:53.781Z,6.68
2023-03-02T01:09:56.423Z,6.40
2023-03-02T01:12:59.365Z,6.07
2023-03-02T01:16:05.195Z,6.88
2023-03-02T01:19:08.287Z,5.90
2023-03-02T01:22:11.237Z,6.53
2023-03-02T01:25:14.209Z,6.40
2023-03-02T01:28:17.372Z,6.50
2023-03-02T01:31:20.231Z,6.65
2023-03-02T01:34:22.877Z,7.32
2023-03-02T01:37:25.532Z,7.40
2023-03-02T01:40:28.447Z,7.30
2023-03-02T01:43:31.177Z,7.18
2023-03-02T01:46:35.352Z,6.53
2023-03-02T01:49:38.892Z,7.20
2023-03-02T01:52:43.647Z,7.57
2023-03-02T01:55:47.732Z,7.53
2023-03-02T01:58:54.573Z,7.72
2023-03-02T02:02:00.638Z,8.30
2023-03-02T02:05:05.263Z,8.68
2023-03-02T02:08:09.328Z,9.13
2023-03-02T02:11:13.371Z,8.87
2023-03-02T02:14:16.344Z,8.73
2023-03-02T02:17:19.799Z,8.60
2023-03-02T02:20:32.100Z,8.35
2023-03-02T02:23:37.969Z,8.90
2023-03-02T02:26:48.041Z,8.80
2023-03-02T02:29:52.612Z,8.18
2023-03-02T02:32:58.550Z,8.55
2023-03-02T02:36:10.209Z,9.30
2023-03-02T02:39:36.549Z,8.93
2023-03-02T02:42:44.459Z,7.93
2023-03-02T02:45:50.235Z,7.93
2023-03-02T02:48:54.172Z,8.63
2023-03-02T02:51:57.454Z,9.15
2023-03-02T02:55:00.269Z,9.25
2023-03-02T02:58:13.573Z,8.60
2023-03-02T03:01:20.173Z,9.43
2023-03-02T03:04:27.498Z,9.63
2023-03-02T03:07:32.224Z,10.30
2023-03-02T03:10:40.438Z,11.48
2023-03-02T03:13:44.652Z,12.07
2023-03-02T03:16:49.590Z,12.02
2023-03-02T03:19:52.305Z,12.82
2023-03-02T03:22:55.837Z,13.82
2023-03-02T03:25:58.770Z,14.88
2023-03-02T03:29:02.050Z,13.43
2023-03-02T03:32:06.990Z,14.55
2023-03-02T03:35:11.724Z,16.52
2023-03-02T03:38:14.721Z,15.40
2023-03-02T03:41:18.618Z,14.20
2023-03-02T03:44:21.793Z,12.83
2023-03-02T03:47:24.946Z,13.10
2023-03-02T03:50:28.540Z,13.65
2023-03-02T03:53:31.880Z,11.80
2023-03-02T03:56:45.024Z,13.05
2023-03-02T03:59:48.490Z,12.57
2023-03-02T04:02:51.289Z,11.75
2023-03-02T04:05:54.974Z,12.95
2023-03-02T04:09:03.072Z,14.85
2023-03-02T04:12:07.455Z,14.35
2023-03-02T04:15:14.822Z,12.67
2023-03-02T04:18:17.835Z,12.70
2023-03-02T04:21:21.874Z,13.38
2023-03-02T04:24:25.184Z,12.20
2023-03-02T04:27:30.996Z,12.32
2023-03-02T04:30:33.714Z,11.37
2023-03-02T04:33:36.563Z,11.85
2023-03-02T04:36:40.301Z,13.10
2023-03-02T04:39:51.283Z,12.95
2023-03-02T04:42:53.866Z,12.43
2023-03-02T04:45:56.710Z,13.20
2023-03-02T04:48:59.708Z,11.55
2023-03-02T04:52:03.255Z,12.20
2023-03-02T04:55:07.645Z,11.75
2023-03-02T04:58:10.772Z,12.30
2023-03-02T05:01:15.450Z,11.90
2023-03-02T05:04:18.887Z,11.88
2023-03-02T05:07:21.763Z,12.02
2023-03-02T05:10:26.550Z,11.55
2023-03-02T05:13:29.332Z,11.77
2023-03-02T05:16:34.705Z,12.50
2023-03-02T05:19:38.458Z,12.20
2023-03-02T05:22:42.206Z,12.52
2023-03-02T05:25:44.852Z,13.27
2023-03-02T05:28:47.489Z,12.93
2023-03-02T05:31:50.698Z,12.77
2023-03-02T05:34:53.327Z,13.10
2023-03-02T05:37:56.107Z,13.43
2023-03-02T05:40:58.763Z,13.43
2023-03-02T05:44:01.849Z,13.88
2023-03-02T05:47:04.539Z,13.57
2023-03-02T05:50:07.854Z,13.40
2023-03-02T05:53:10.613Z,13.73
2023-03-02T05:56:13.210Z,13.77
2023-03-02T05:59:16.138Z,14.48
2023-03-02T06:02:18.928Z,14.87
2023-03-02T06:05:22.989Z,14.90
2023-03-02T06:08:25.857Z,12.98
2023-03-02T06:11:30.318Z,13.15
2023-03-02T06:14:33.114Z,13.18
2023-03-02T06:17:36.017Z,13.17
2023-03-02T06:20:39.468Z,12.98
2023-03-02T06:23:42.179Z,13.07
2023-03-02T06:26:48.155Z,13.32
2023-03-02T06:29:51.051Z,12.85
2023-03-02T06:32:53.741Z,12.93
2023-03-02T06:35:56.776Z,12.52
2023-03-02T06:38:59.603Z,12.75
2023-03-02T06:42:02.947Z,12.35
2023-03-02T06:45:08.116Z,12.50
2023-03-02T06:48:10.835Z,11.73
2023-03-02T06:51:13.848Z,11.43
2023-03-02T06:54:16.457Z,11.95
2023-03-02T06:57:19.116Z,10.98
2023-03-02T07:00:28.681Z,11.18
2023-03-02T07:03:32.814Z,11.20
2023-03-02T07:06:35.457Z,10.93
2023-03-02T07:09:38.004Z,12.02
2023-03-02T07:12:42.076Z,10.98
2023-03-02T07:15:44.793Z,10.93
2023-03-02T07:18:47.380Z,11.00
2023-03-02T07:21:50.086Z,10.40
2023-03-02T07:24:52.631Z,11.30
2023-03-02T07:27:55.693Z,10.30
2023-03-02T07:30:59.384Z,10.20
2023-03-02T07:34:03.462Z,10.33
2023-03-02T07:37:06.219Z,10.48
2023-03-02T07:40:11.685Z,9.98
2023-03-02T07:43:14.354Z,10.20
2023-03-02T07:46:17.127Z,10.32
2023-03-02T07:49:19.842Z,10.70
2023-03-02T07:52:42.549Z,9.68
2023-03-02T07:55:45.282Z,10.85
2023-03-02T07:58:48.146Z,10.18
2023-03-02T08:01:52.076Z,9.63
2023-03-02T08:04:56.049Z,10.23
2023-03-02T08:07:59.118Z,10.13
2023-03-02T08:11:09.282Z,9.88
2023-03-02T08:14:12.701Z,10.10
2023-03-02T08:17:15.853Z,9.65
2023-03-02T08:20:19.005Z,9.50
2023-03-02T08:23:22.936Z,9.57
2023-03-02T08:26:26.461Z,9.82
2023-03-02T08:29:30.166Z,9.32
2023-03-02T08:32:34.132Z,9.23
2023-03-02T08:35:39.348Z,8.80
2023-03-02T08:38:43.214Z,8.98
2023-03-02T08:41:47.220Z,9.45
2023-03-02T08:44:50.057Z,10.60
2023-03-02T08:47:56.762Z,10.32
2023-03-02T08:51:01.844Z,10.23
2023-03-02T08:54:10.247Z,10.02
2023-03-02T08:57:21.604Z,10.02
2023-03-02T09:00:25.643Z,9.10
2023-03-02T09:03:28.756Z,9.10
2023-03-02T09:06:34.571Z,8.10
2023-03-02T09:09:38.273Z,10.20
2023-03-02T09:12:40.988Z,8.30
2023-03-02T09:15:43.717Z,8.60
2023-03-02T09:18:47.395Z,7.43
2023-03-02T09:21:50.385Z,6.87
2023-03-02T09:24:53.267Z,7.40
2023-03-02T09:27:56.048Z,7.95
2023-03-02T09:31:00.925Z,7.43
2023-03-02T09:34:06.102Z,8.05
2023-03-02T09:37:10.428Z,8.63
2023-03-02T09:40:25.383Z,7.40
2023-03-02T09:43:39.956Z,7.53
2023-03-02T09:46:51.048Z,7.57
2023-03-02T09:50:21.027Z,7.13
2023-03-02T09:53:37.764Z,7.63
2023-03-02T09:57:19.538Z,7.75
2023-03-02T10:00:33.011Z,8.50
2023-03-02T10:03:45.485Z,8.18
2023-03-02T10:06:55.485Z,7.28
2023-03-02T10:10:21.704Z,6.40
2023-03-02T10:13:51.093Z,6.05
2023-03-02T10:17:59.578Z,6.65
2023-03-02T10:21:23.266Z,6.35
2023-03-02T10:24:46.185Z,5.88
2023-03-02T10:27:57.802Z,6.03
2023-03-02T10:31:19.005Z,5.72
2023-03-02T10:34:26.741Z,6.10
2023-03-02T10:37:32.113Z,5.88
2023-03-02T10:41:00.130Z,5.78
2023-03-02T10:44:08.043Z,5.90
2023-03-02T10:47:26.057Z,5.40
2023-03-02T10:50:37.335Z,5.43
2023-03-02T10:53:40.020Z,6.15
2023-03-02T10:56:48.117Z,6.10
2023-03-02T11:00:03.242Z,5.90
2023-03-02T11:03:23.275Z,6.15
2023-03-02T11:06:26.560Z,6.07
2023-03-02T11:09:30.251Z,6.00
2023-03-02T11:12:37.210Z,6.13
2023-03-02T11:15:49.899Z,5.53
2023-03-02T11:18:55.247Z,6.05
2023-03-02T11:22:06.096Z,5.70
2023-03-02T11:25:25.463Z,5.45
2023-03-02T11:28:49.177Z,5.90
2023-03-02T11:31:56.737Z,5.60
2023-03-02T11:35:15.014Z,5.78
2023-03-02T11:38:30.485Z,5.78
2023-03-02T11:42:12.437Z,5.88
2023-03-02T11:45:34.894Z,5.60
2023-03-02T11:48:42.970Z,5.67
2023-03-02T11:52:01.156Z,5.80
2023-03-02T11:55:18.527Z,5.57
2023-03-02T11:58:24.809Z,5.32
2023-03-02T12:01:28.331Z,5.70
2023-03-02T12:04:36.059Z,5.47
2023-03-02T12:07:41.123Z,5.95
2023-03-02T12:10:56.958Z,6.00
2023-03-02T12:14:02.541Z,5.93
2023-03-02T12:17:27.312Z,5.85
2023-03-02T12:20:31.487Z,5.17
2023-03-02T12:23:41.033Z,5.40
2023-03-02T12:26:44.153Z,5.47
2023-03-02T12:30:18.914Z,5.70
2023-03-02T12:33:22.070Z,5.88
2023-03-02T12:36:44.859Z,5.73
2023-03-02T12:40:12.657Z,5.10
2023-03-02T12:43:29.144Z,5.88
2023-03-02T12:46:37.342Z,5.38
2023-03-02T12:49:50.252Z,5.97
2023-03-02T12:53:01.879Z,5.10
2023-03-02T12:56:09.152Z,5.60
2023-03-02T12:59:27.146Z,5.80
2023-03-02T13:02:36.502Z,5.13
2023-03-02T13:05:39.232Z,5.40
2023-03-02T13:08:48.064Z,5.50
2023-03-02T13:11:54.808Z,5.20
2023-03-02T13:14:59.409Z,5.75
2023-03-02T13:18:02.153Z,5.20
2023-03-02T13:21:06.373Z,5.20
2023-03-02T13:24:34.688Z,5.47
2023-03-02T13:27:37.299Z,5.28
2023-03-02T13:30:47.994Z,5.43
2023-03-02T13:33:53.626Z,5.45
2023-03-02T13:36:56.639Z,5.40
2023-03-02T13:40:01.897Z,5.43
2023-03-02T13:43:08.846Z,5.18
2023-03-02T13:46:11.600Z,4.97
2023-03-02T13:49:14.343Z,5.32
2023-03-02T13:52:24.761Z,5.28
2023-03-02T13:55:27.831Z,5.20
2023-03-02T13:58:34.262Z,5.38
2023-03-02T14:01:38.327Z,5.57
2023-03-02T14:04:41.136Z,5.55
2023-03-02T14:07:46.556Z,5.18
2023-03-02T14:10:51.747Z,5.20
2023-03-02T14:13:55.788Z,5.43
2023-03-02T14:16:58.605Z,5.05
2023-03-02T14:20:01.599Z,5.20
2023-03-02T14:23:06.846Z,5.10
2023-03-02T14:26:36.221Z,5.17
2023-03-02T14:29:39.754Z,5.25
2023-03-02T14:32:42.623Z,5.45
2023-03-02T14:35:45.553Z,5.35
2023-03-02T14:38:48.160Z,5.82
2023-03-02T14:41:54.091Z,6.13
2023-03-02T14:44:57.870Z,5.50
2023-03-02T14:48:01.456Z,5.30
2023-03-02T14:51:07.047Z,5.03
2023-03-02T14:54:18.118Z,4.93
2023-03-02T14:57:26.906Z,5.60
2023-03-02T15:00:31.537Z,4.85
2023-03-02T15:03:34.500Z,4.82
2023-03-02T15:06:39.939Z,4.90
2023-03-02T15:09:45.641Z,5.55
2023-03-02T15:12:48.754Z,5.07
2023-03-02T15:15:52.889Z,5.53
2023-03-02T15:18:58.750Z,5.40
2023-03-02T15:22:02.761Z,4.78
2023-03-02T15:25:05.994Z,5.85
2023-03-02T15:28:10.257Z,5.70
2023-03-02T15:31:15.877Z,5.45
2023-03-02T15:34:18.557Z,5.15
2023-03-02T15:37:22.310Z,4.97
2023-03-02T15:40:26.467Z,5.20
2023-03-02T15:43:29.432Z,5.37
2023-03-02T15:46:32.150Z,5.57
2023-03-02T15:49:34.806Z,5.18
2023-03-02T15:52:37.365Z,5.35
2023-03-02T15:55:42.789Z,5.25
2023-03-02T15:58:47.909Z,5.50
2023-03-02T16:01:50.929Z,4.93
2023-03-02T16:04:54.026Z,5.65
2023-03-02T16:07:56.732Z,5.50
2023-03-02T16:11:02.146Z,5.10
2023-03-02T16:14:05.133Z,5.07
2023-03-02T16:17:09.325Z,5.53
2023-03-02T16:20:12.683Z,5.35
2023-03-02T16:23:16.207Z,5.05
2023-03-02T16:26:21.395Z,4.80
2023-03-02T16:29:24.367Z,5.33
2023-03-02T16:32:27.614Z,5.60
2023-03-02T16:35:32.033Z,5.00
2023-03-02T16:38:37.059Z,4.80
2023-03-02T16:41:42.124Z,5.32
2023-03-02T16:44:46.313Z,5.87
2023-03-02T16:47:49.570Z,5.55
2023-03-02T16:50:58.183Z,5.43
2023-03-02T16:54:01.636Z,5.30
2023-03-02T16:57:04.821Z,5.72
2023-03-02T17:00:11.056Z,5.17
2023-03-02T17:03:15.876Z,5.35
2023-03-02T17:06:22.663Z,6.10
2023-03-02T17:09:25.282Z,6.13
2023-03-02T17:12:28.116Z,5.15
2023-03-02T17:15:30.927Z,6.70
2023-03-02T17:18:34.250Z,6.38
2023-03-02T17:21:37.491Z,6.93
2023-03-02T17:24:41.323Z,7.03
2023-03-02T17:27:47.561Z,6.97
2023-03-02T17:30:52.181Z,7.57
2023-03-02T17:33:56.368Z,7.35
2023-03-02T17:37:00.695Z,8.98
2023-03-02T17:40:04.826Z,8.10
2023-03-02T17:43:08.514Z,8.43
2023-03-02T17:46:22.993Z,9.17
2023-03-02T17:49:26.689Z,9.07
2023-03-02T17:52:30.029Z,9.43
2023-03-02T17:55:32.971Z,10.13
2023-03-02T17:58:44.948Z,9.68
2023-03-02T18:01:48.872Z,10.33
2023-03-02T18:04:52.040Z,9.60
2023-03-02T18:07:55.131Z,9.98
2023-03-02T18:11:00.478Z,9.93
2023-03-02T18:14:03.517Z,10.45
2023-03-02T18:17:08.867Z,10.20
2023-03-02T18:20:12.798Z,10.73
2023-03-02T18:23:16.812Z,10.70
2023-03-02T18:26:23.942Z,10.27
2023-03-02T18:29:28.703Z,10.82
2023-03-02T18:32:32.642Z,9.97
2023-03-02T18:35:38.686Z,10.45
2023-03-02T18:38:42.436Z,10.02
2023-03-02T18:41:46.323Z,10.30
2023-03-02T18:44:51.123Z,10.50
2023-03-02T18:47:55.513Z,9.83
2023-03-02T18:51:00.029Z,9.80
2023-03-02T18:54:04.173Z,10.30
2023-03-02T18:57:09.055Z,10.23
2023-03-02T19:00:22.585Z,10.00
2023-03-02T19:03:25.932Z,10.50
2023-03-02T19:06:30.011Z,9.82
2023-03-02T19:09:34.553Z,10.23
2023-03-02T19:12:38.248Z,9.73
2023-03-02T19:15:43.176Z,10.25
2023-03-02T19:18:47.652Z,10.53
2023-03-02T19:21:52.173Z,9.60
2023-03-02T19:24:55.766Z,10.07
2023-03-02T19:27:59.655Z,10.73
2023-03-02T19:31:07.162Z,9.90
2023-03-02T19:34:11.029Z,9.97
2023-03-02T19:37:15.873Z,10.20
2023-03-02T19:40:24.150Z,10.00
2023-03-02T19:43:28.728Z,10.02
2023-03-02T19:46:32.474Z,10.05
2023-03-02T19:49:38.283Z,9.10
2023-03-02T19:52:42.574Z,9.95
2023-03-02T19:55:48.147Z,9.48
2023-03-02T19:58:55.255Z,9.57
2023-03-02T20:02:00.611Z,9.50
2023-03-02T20:05:05.984Z,9.57
2023-03-02T20:08:09.797Z,9.52
2023-03-02T20:11:13.689Z,9.60
2023-03-02T20:14:31.550Z,9.45
2023-03-02T20:17:36.815Z,10.07
2023-03-02T20:20:41.402Z,9.30
2023-03-02T20:23:46.983Z,8.45
2023-03-02T20:26:50.840Z,9.57
2023-03-02T20:29:54.750Z,9.60
2023-03-02T20:33:01.123Z,9.48
2023-03-02T20:36:05.892Z,9.17
2023-03-02T20:39:26.181Z,9.75
2023-03-02T20:42:33.345Z,10.10
2023-03-02T20:45:37.295Z,9.40
2023-03-02T20:48:41.272Z,9.85
2023-03-02T20:51:49.476Z,9.07
2023-03-02T20:54:53.073Z,9.30
2023-03-02T20:57:57.432Z,9.65
2023-03-02T21:01:02.593Z,9.07
2023-03-02T21:04:06.010Z,10.15
2023-03-02T21:07:10.321Z,9.30
2023-03-02T21:10:23.361Z,9.55
2023-03-02T21:13:28.522Z,9.55
2023-03-02T21:16:37.623Z,9.75
2023-03-02T21:19:40.996Z,10.43
2023-03-02T21:22:45.114Z,9.67
2023-03-02T21:25:48.459Z,9.95
2023-03-02T21:28:51.469Z,9.82
2023-03-02T21:31:56.001Z,9.02
2023-03-02T21:35:00.166Z,9.25
2023-03-02T21:38:05.167Z,8.93
2023-03-02T21:41:09.110Z,9.43
2023-03-02T21:44:14.441Z,8.80
2023-03-02T21:47:17.498Z,9.23
2023-03-02T21:50:27.894Z,9.52
2023-03-02T21:53:30.931Z,9.10
2023-03-02T21:56:33.789Z,9.95
2023-03-02T21:59:37.390Z,9.18
2023-03-02T22:02:39.904Z,8.63
2023-03-02T22:05:42.564Z,9.40
2023-03-02T22:08:45.228Z,9.23
2023-03-02T22:11:49.445Z,9.60
2023-03-02T22:14:53.724Z,9.18
2023-03-02T22:17:56.698Z,8.95
2023-03-02T22:20:59.807Z,9.25
2023-03-02T22:24:08.262Z,9.03
2023-03-02T22:27:30.809Z,8.85
2023-03-02T22:30:34.371Z,9.02
2023-03-02T22:33:37.228Z,9.20
2023-03-02T22:36:39.867Z,8.90
2023-03-02T22:39:42.581Z,8.90
2023-03-02T22:42:45.194Z,8.98
2023-03-02T22:45:47.831Z,8.82
2023-03-02T22:48:52.632Z,8.55
2023-03-02T22:52:00.743Z,8.75
2023-03-02T22:55:37.105Z,8.30
2023-03-02T22:58:46.095Z,8.40
2023-03-02T23:01:49.243Z,8.75
2023-03-02T23:04:51.996Z,8.65
2023-03-02T23:08:22.541Z,8.38
2023-03-02T23:11:26.921Z,8.70
2023-03-02T23:14:39.256Z,8.70
2023-03-02T23:17:41.799Z,8.23
2023-03-02T23:20:44.689Z,8.50
2023-03-02T23:23:48.908Z,8.85
2023-03-02T23:26:52.422Z,8.80
2023-03-02T23:29:55.071Z,8.70
2023-03-02T23:32:57.733Z,8.13
2023-03-02T23:36:00.928Z,8.52
2023-03-02T23:39:07.535Z,8.50
2023-03-02T23:42:12.634Z,8.50
2023-03-02T23:45:16.386Z,8.02
2023-03-02T23:48:19.032Z,8.18
2023-03-02T23:51:23.226Z,8.07
2023-03-02T23:54:25.842Z,8.68
2023-03-02T23:57:28.560Z,7.77
